Time;durP1;ratioP1;P1;durP2;ratioP2;P2;SDS_P1;SDS_P2;PMS_P1;PMS_P2;Temp;Humidity;BMP_temperature;BMP_pressure;BME280_temperature;BME280_humidity;BME280_pressure;Samples;Min_cycle;Max_cycle;Signal;HPM_P1;HPM_P2
2022/10/19 00:02:00;;;;;;;4.43;2.28;;;;;;;13.22;44.23;102425.59;5052215;28;20120;-87
2022/10/19 00:04:29;;;;;;;3.88;2.13;;;;;;;13.22;44.39;102420.97;5049166;28;20044;-86
2022/10/19 00:06:57;;;;;;;3.72;2.40;;;;;;;13.20;44.48;102422.09;5034059;28;20037;-87
2022/10/19 00:09:25;;;;;;;4.32;2.10;;;;;;;13.19;44.27;102415.72;5042593;28;20049;-86
2022/10/19 00:11:53;;;;;;;4.25;2.50;;;;;;;13.18;44.39;102422.22;5045689;28;20128;-87
2022/10/19 00:14:23;;;;;;;6.18;2.70;;;;;;;13.18;44.12;102421.31;5040492;28;20045;-86
2022/10/19 00:16:53;;;;;;;5.82;2.42;;;;;;;13.17;44.38;102420.44;5037382;28;20041;-87
2022/10/19 00:19:24;;;;;;;4.13;2.25;;;;;;;13.16;44.24;102420.56;5042469;28;20143;-86
2022/10/19 00:21:53;;;;;;;4.65;2.35;;;;;;;13.14;43.76;102417.91;5032304;28;20045;-86
2022/10/19 00:24:22;;;;;;;6.20;2.30;;;;;;;13.11;43.98;102420.03;5050106;28;20053;-86
2022/10/19 00:26:50;;;;;;;3.88;2.13;;;;;;;13.09;43.92;102411.88;5033718;28;20052;-86
2022/10/19 00:29:19;;;;;;;5.57;2.30;;;;;;;13.08;44.54;102407.38;5033396;28;20037;-86
2022/10/19 00:31:49;;;;;;;3.80;2.03;;;;;;;13.08;44.17;102409.25;5048980;28;20331;-86
2022/10/19 00:34:17;;;;;;;4.82;2.15;;;;;;;13.05;44.14;102404.84;5032571;28;20541;-86
2022/10/19 00:36:45;;;;;;;5.25;2.10;;;;;;;13.03;44.11;102406.84;5043123;28;20048;-86
2022/10/19 00:39:17;;;;;;;4.03;2.40;;;;;;;13.05;43.73;102403.97;5034399;28;20041;-88
2022/10/19 00:41:46;;;;;;;6.15;1.92;;;;;;;13.01;44.50;102407.94;5035537;28;20041;-88
2022/10/19 00:44:58;;;;;;;3.70;2.10;;;;;;;12.95;43.82;102411.16;5049241;28;20076;-88
2022/10/19 00:47:27;;;;;;;4.30;2.00;;;;;;;12.95;44.58;102411.16;5033923;28;20045;-87
2022/10/19 00:49:57;;;;;;;4.05;2.00;;;;;;;12.97;44.32;102417.38;5034331;28;20055;-88
2022/10/19 00:52:26;;;;;;;3.53;1.80;;;;;;;12.96;44.42;102416.50;5034350;28;20223;-87
2022/10/19 00:54:58;;;;;;;4.18;2.00;;;;;;;12.96;44.32;102413.75;5040270;28;20040;-89
2022/10/19 00:57:29;;;;;;;4.32;2.08;;;;;;;12.96;44.00;102412.88;5024734;28;20045;-88
2022/10/19 01:00:01;;;;;;;4.82;2.00;;;;;;;12.93;44.16;102404.88;5025266;28;20313;-87
2022/10/19 01:02:39;;;;;;;3.65;2.17;;;;;;;12.93;43.73;102402.13;5037333;28;20048;-87
2022/10/19 01:05:09;;;;;;;4.50;2.25;;;;;;;12.90;44.51;102399.59;5019385;28;20484;-90
2022/10/19 01:07:37;;;;;;;6.05;2.45;;;;;;;12.88;44.08;102411.56;5043346;28;20091;-87
2022/10/19 01:10:44;;;;;;;4.55;1.98;;;;;;;12.88;43.81;102410.69;4982510;28;20065;-87
2022/10/19 01:13:28;;;;;;;4.93;1.98;;;;;;;12.87;43.88;102400.72;5008318;28;20089;-86
2022/10/19 01:16:01;;;;;;;4.93;2.05;;;;;;;12.84;43.99;102398.19;4961803;28;20092;-86
2022/10/19 01:18:41;;;;;;;5.25;2.10;;;;;;;12.84;43.71;102398.19;4987448;28;20124;-86
2022/10/19 01:21:26;;;;;;;5.32;2.30;;;;;;;12.80;43.83;102388.41;4984304;28;20038;-86
2022/10/19 01:24:31;;;;;;;3.28;2.00;;;;;;;12.77;43.78;102394.13;4998739;28;20054;-86
2022/10/19 01:27:44;;;;;;;4.55;2.17;;;;;;;12.74;43.75;102402.59;4985968;28;20373;-86
2022/10/19 01:30:17;;;;;;;4.45;1.63;;;;;;;12.72;43.60;102402.69;4960178;28;20042;-86
2022/10/19 01:32:58;;;;;;;5.00;2.67;;;;;;;12.73;43.69;102403.56;4986775;28;20432;-86
2022/10/19 01:35:33;;;;;;;3.60;1.80;;;;;;;12.70;43.69;102399.19;4965610;28;20055;-86
2022/10/19 01:38:27;;;;;;;4.40;2.08;;;;;;;12.65;43.40;102404.13;4979080;28;20056;-86
2022/10/19 01:41:02;;;;;;;5.25;1.95;;;;;;;12.66;44.05;102402.25;4963539;28;20106;-85
2022/10/19 01:43:43;;;;;;;3.92;2.00;;;;;;;12.65;43.57;102398.63;4991384;28;20072;-86
2022/10/19 01:46:18;;;;;;;4.47;2.25;;;;;;;12.63;44.00;102392.38;4988720;28;20096;-86
2022/10/19 01:48:52;;;;;;;4.82;2.03;;;;;;;12.62;43.91;102389.75;5028306;28;20423;-87
2022/10/19 01:51:25;;;;;;;3.80;2.10;;;;;;;12.59;43.95;102384.44;5047334;28;20094;-85
2022/10/19 01:53:55;;;;;;;;;;;;;;;12.31;44.29;102382.78;5048017;28;20052;-86
2022/10/19 01:56:27;;;;;;;3.22;1.73;;;;;;;12.51;43.98;102382.25;5025584;28;19920;-86
2022/10/19 01:58:57;;;;;;;3.88;1.98;;;;;;;12.52;44.04;102370.28;5034104;28;20060;-86
2022/10/19 02:01:31;;;;;;;4.43;1.83;;;;;;;12.53;43.65;102371.16;5013794;28;20050;-87
2022/10/19 02:04:00;;;;;;;4.15;2.17;;;;;;;12.49;44.05;102365.00;5028103;28;20080;-86
2022/10/19 02:06:28;;;;;;;3.38;1.90;;;;;;;12.46;43.81;102365.19;5042504;28;20052;-87
2022/10/19 02:08:56;;;;;;;3.72;1.77;;;;;;;12.44;44.02;102367.19;5048855;28;20048;-87
2022/10/19 02:11:25;;;;;;;5.18;2.00;;;;;;;12.44;44.00;102367.19;5032700;28;20052;-86
2022/10/19 02:14:01;;;;;;;3.53;2.00;;;;;;;12.43;43.50;102370.94;5050154;28;20136;-87
2022/10/19 02:16:35;;;;;;;5.43;2.40;;;;;;;12.42;43.39;102374.66;5047992;28;20061;-89
2022/10/19 02:19:04;;;;;;;4.63;2.38;;;;;;;12.38;43.88;102365.75;5046484;28;20041;-88
2022/10/19 02:21:32;;;;;;;4.35;2.00;;;;;;;12.38;43.74;102370.34;5020439;28;20060;-88
2022/10/19 02:24:00;;;;;;;6.75;2.50;;;;;;;12.35;43.54;102365.09;5033384;28;20153;-88
2022/10/19 02:26:29;;;;;;;4.78;2.20;;;;;;;12.34;44.06;102368.84;5026781;28;20073;-88
2022/10/19 02:28:58;;;;;;;5.28;2.38;;;;;;;12.33;44.08;102353.34;5043516;28;20051;-88
2022/10/19 02:31:26;;;;;;;4.45;2.47;;;;;;;12.31;43.64;102358.94;5031914;28;20735;-88
2022/10/19 02:33:56;;;;;;;5.07;2.00;;;;;;;12.32;43.59;102368.06;5032306;28;20550;-88
2022/10/19 02:36:24;;;;;;;4.60;2.33;;;;;;;12.29;43.83;102365.56;5031601;28;20091;-88
2022/10/19 02:38:53;;;;;;;4.40;2.20;;;;;;;12.27;43.78;102357.44;5031783;28;20037;-88
2022/10/19 02:41:26;;;;;;;5.07;2.13;;;;;;;12.27;43.67;102348.31;5032264;28;20502;-87
2022/10/19 02:43:59;;;;;;;5.78;2.30;;;;;;;12.26;43.39;102349.28;5049060;28;20075;-88
2022/10/19 02:46:32;;;;;;;4.82;2.10;;;;;;;12.25;43.56;102347.53;5014248;28;20087;-88
2022/10/19 02:49:04;;;;;;;4.13;2.03;;;;;;;12.21;43.87;102338.66;5033435;28;20069;-88
2022/10/19 02:51:37;;;;;;;3.85;2.20;;;;;;;12.20;43.15;102336.88;5022734;28;20099;-88
2022/10/19 02:54:07;;;;;;;3.72;2.10;;;;;;;12.17;43.46;102334.34;5035784;28;20053;-88
2022/10/19 02:56:35;;;;;;;5.55;2.17;;;;;;;12.13;43.85;102336.44;5030228;28;20108;-87
2022/10/19 02:59:04;;;;;;;4.38;2.20;;;;;;;12.11;43.87;102343.91;5048238;28;20524;-88
2022/10/19 03:01:46;;;;;;;3.63;1.92;;;;;;;12.13;43.33;102334.69;5031997;28;20111;-87
2022/10/19 03:04:25;;;;;;;4.70;2.00;;;;;;;12.09;43.54;102328.53;5048380;28;20049;-87
2022/10/19 03:06:59;;;;;;;4.10;2.00;;;;;;;12.05;43.75;102330.59;5019940;28;20041;-88
2022/10/19 03:09:29;;;;;;;6.47;2.28;;;;;;;12.04;43.97;102323.38;5044997;28;20044;-89
2022/10/19 03:11:58;;;;;;;4.32;2.05;;;;;;;12.02;43.91;102317.13;4987130;28;20049;-88
2022/10/19 03:14:26;;;;;;;5.28;2.58;;;;;;;12.00;43.65;102323.69;5028574;28;20496;-88
2022/10/19 03:17:12;;;;;;;3.85;2.30;;;;;;;11.97;43.41;102329.38;5006463;28;20110;-88
2022/10/19 03:19:44;;;;;;;6.28;2.45;;;;;;;11.97;43.69;102326.63;5049806;28;20056;-88
2022/10/19 03:22:36;;;;;;;5.25;2.40;;;;;;;11.91;43.53;102336.19;5039151;28;20175;-88
2022/10/19 03:25:04;;;;;;;4.30;2.50;;;;;;;11.90;43.37;102336.28;5026300;28;20041;-88
2022/10/19 03:27:32;;;;;;;4.55;2.80;;;;;;;11.89;43.38;102323.56;5037505;28;20041;-88
2022/10/19 03:30:01;;;;;;;4.25;2.63;;;;;;;11.86;43.28;102327.41;5032857;28;20571;-88
2022/10/19 03:32:29;;;;;;;5.07;2.20;;;;;;;11.84;43.39;102329.38;4996667;28;20515;-88
2022/10/19 03:34:59;;;;;;;4.07;2.10;;;;;;;11.84;43.76;102326.63;5038736;28;20427;-88
2022/10/19 03:37:27;;;;;;;6.30;2.47;;;;;;;11.81;43.86;102334.19;4984764;28;20041;-88
2022/10/19 03:39:55;;;;;;;5.13;2.22;;;;;;;11.79;43.32;102334.31;5038777;28;20045;-88
2022/10/19 03:42:28;;;;;;;4.18;2.15;;;;;;;11.76;44.10;102341.88;5036300;23;20049;31
2022/10/19 03:44:59;;;;;;;3.55;1.80;;;;;;;11.73;43.83;102338.34;5015695;28;20673;-84
2022/10/19 03:47:27;;;;;;;4.75;2.22;;;;;;;11.73;43.40;102340.19;4974562;28;20050;-85
2022/10/19 03:49:56;;;;;;;5.78;2.20;;;;;;;11.74;43.61;102347.44;5016895;28;20046;-85
2022/10/19 03:52:25;;;;;;;3.60;2.25;;;;;;;11.71;43.56;102340.34;5000951;28;20046;-85
2022/10/19 03:54:53;;;;;;;4.45;2.40;;;;;;;11.71;43.37;102353.16;4966312;28;20668;-84
2022/10/19 03:57:21;;;;;;;4.45;2.30;;;;;;;11.67;43.39;102355.22;4963422;28;20121;-85
2022/10/19 03:59:49;;;;;;;4.28;2.22;;;;;;;11.67;43.40;102360.72;4983525;28;20057;-86
2022/10/19 04:02:17;;;;;;;5.57;2.78;;;;;;;11.67;43.12;102363.47;4959630;28;20038;-86
2022/10/19 04:04:45;;;;;;;4.95;2.50;;;;;;;11.63;43.16;102350.94;4978068;28;20109;-86
2022/10/19 04:07:13;;;;;;;5.03;2.58;;;;;;;11.62;43.33;102357.41;4995396;28;20055;-85
2022/10/19 04:09:42;;;;;;;5.65;2.40;;;;;;;11.63;43.34;102358.31;4980716;28;20043;-86
2022/10/19 04:12:10;;;;;;;4.03;2.20;;;;;;;11.60;43.05;102364.81;4997404;28;20050;-85
2022/10/19 04:14:38;;;;;;;5.30;2.50;;;;;;;11.59;43.46;102359.44;4963386;28;20054;-86
2022/10/19 04:17:24;;;;;;;5.25;2.55;;;;;;;11.54;43.52;102350.66;4964554;28;20457;-86
2022/10/19 04:19:52;;;;;;;6.10;2.90;;;;;;;11.53;43.91;102349.78;4965389;28;20043;-86
2022/10/19 04:22:20;;;;;;;5.63;2.83;;;;;;;11.51;43.86;102343.53;4967498;28;20066;-86
2022/10/19 04:24:49;;;;;;;6.22;2.50;;;;;;;11.51;43.68;102350.84;4967293;28;20319;-86
2022/10/19 04:27:17;;;;;;;5.38;2.53;;;;;;;11.48;43.64;102342.84;4974138;28;20519;-86
2022/10/19 04:29:45;;;;;;;4.90;2.50;;;;;;;11.45;43.70;102343.94;4987187;28;20057;-86
2022/10/19 04:32:13;;;;;;;5.82;2.33;;;;;;;11.46;43.51;102353.06;4979827;28;20111;-85
2022/10/19 04:34:41;;;;;;;4.35;2.47;;;;;;;11.46;43.69;102353.94;4965984;28;20047;-86
2022/10/19 04:37:09;;;;;;;6.60;2.72;;;;;;;11.45;43.39;102360.38;4963769;28;20094;-85
2022/10/19 04:39:39;;;;;;;5.20;2.55;;;;;;;11.44;43.46;102357.75;4974904;28;20502;-83
2022/10/19 04:42:08;;;;;;;5.65;2.65;;;;;;;11.45;43.52;102354.91;4959151;28;20039;-85
2022/10/19 04:44:36;;;;;;;4.88;2.90;;;;;;;11.43;43.26;102355.97;4958841;28;20050;-84
2022/10/19 04:47:04;;;;;;;5.70;3.05;;;;;;;11.40;43.30;102356.19;4958692;28;20039;-85
2022/10/19 04:49:32;;;;;;;4.95;2.85;;;;;;;11.41;43.59;102360.69;4959517;28;20071;-85
2022/10/19 04:52:00;;;;;;;5.07;2.78;;;;;;;11.37;43.20;102340.84;4991574;28;20106;-86
2022/10/19 04:54:28;;;;;;;5.70;2.80;;;;;;;11.38;43.33;102347.22;4968394;28;20276;-86
2022/10/19 04:56:56;;;;;;;5.25;3.03;;;;;;;11.35;43.68;102338.19;4991055;28;20066;-86
2022/10/19 04:59:25;;;;;;;5.70;3.08;;;;;;;11.35;43.65;102338.19;4970969;28;20046;-86
2022/10/19 05:01:53;;;;;;;6.05;3.13;;;;;;;11.29;43.76;102333.13;4992145;28;20284;-86
2022/10/19 05:04:22;;;;;;;5.45;3.15;;;;;;;11.31;44.00;102336.63;4980389;28;20043;-86
2022/10/19 05:06:52;;;;;;;7.20;3.28;;;;;;;11.29;43.79;102333.13;4961421;28;20628;-85
2022/10/19 05:09:21;;;;;;;6.85;3.40;;;;;;;11.29;43.94;102329.53;4975412;28;20054;-86
2022/10/19 05:11:49;;;;;;;5.18;3.20;;;;;;;11.29;43.40;102321.28;4959567;28;20051;-85
2022/10/19 05:14:18;;;;;;;5.47;3.35;;;;;;;11.28;43.56;102336.84;4991159;28;20051;-86
2022/10/19 05:16:47;;;;;;;6.32;3.78;;;;;;;11.29;44.27;102321.28;4953795;28;20038;-86
2022/10/19 05:19:15;;;;;;;7.65;3.90;;;;;;;11.26;43.98;102321.50;4956402;28;20047;-85
2022/10/19 05:21:43;;;;;;;8.18;3.92;;;;;;;11.27;44.30;102323.25;4950129;28;20039;-85
2022/10/19 05:24:13;;;;;;;6.47;3.72;;;;;;;11.29;44.68;102327.66;4990644;28;20045;-85
2022/10/19 05:26:42;;;;;;;7.40;4.07;;;;;;;11.28;44.63;102320.41;4967040;28;20046;-85
2022/10/19 05:29:11;;;;;;;6.38;3.80;;;;;;;11.30;44.97;102323.06;4958298;28;20111;-85
2022/10/19 05:31:39;;;;;;;7.95;3.78;;;;;;;11.30;44.50;102320.31;4962288;28;20047;-85
2022/10/19 05:34:10;;;;;;;8.27;3.85;;;;;;;11.31;44.71;102322.94;4957235;28;20478;-85
2022/10/19 05:36:40;;;;;;;7.28;3.67;;;;;;;11.31;44.71;102314.69;4957756;28;20055;-86
2022/10/19 05:39:18;;;;;;;6.95;3.58;;;;;;;11.33;44.97;102317.34;4956710;28;20078;-85
2022/10/19 05:41:50;;;;;;;7.45;3.60;;;;;;;11.30;45.02;102315.72;4966413;28;20105;-85
2022/10/19 05:44:24;;;;;;;7.00;3.70;;;;;;;11.31;45.01;102306.47;4981488;28;20053;-85
2022/10/19 05:46:52;;;;;;;7.25;3.72;;;;;;;11.30;44.89;102314.84;4977099;28;20031;-85
2022/10/19 05:49:22;;;;;;;10.30;4.05;;;;;;;11.33;45.19;102320.97;4974480;28;20517;-85
2022/10/19 05:51:50;;;;;;;6.45;3.90;;;;;;;11.33;45.38;102317.34;4953553;28;20059;-85
2022/10/19 05:54:19;;;;;;;8.73;3.70;;;;;;;11.35;45.56;102320.88;4973543;28;20046;-84
2022/10/19 05:56:52;;;;;;;7.15;3.58;;;;;;;11.32;45.66;102319.22;4930379;28;20042;-84
2022/10/19 05:59:22;;;;;;;5.95;3.60;;;;;;;11.34;45.66;102313.63;4955831;28;20050;-85
2022/10/19 06:01:50;;;;;;;6.53;3.65;;;;;;;11.33;45.59;102310.00;4955857;28;20051;-84
2022/10/19 06:04:20;;;;;;;5.00;3.60;;;;;;;11.36;45.29;102320.78;4959084;28;20042;-84
2022/10/19 06:06:48;;;;;;;8.38;3.85;;;;;;;11.33;45.74;102317.34;4956394;28;20082;-83
2022/10/19 06:09:16;;;;;;;6.55;3.72;;;;;;;11.34;45.47;102313.63;4981439;28;20043;-84
2022/10/19 06:11:44;;;;;;;7.88;3.95;;;;;;;11.35;45.29;102308.03;4964113;28;20039;-85
2022/10/19 06:14:13;;;;;;;6.93;3.58;;;;;;;11.36;45.86;102308.94;4956989;28;20054;-84
2022/10/19 06:16:44;;;;;;;5.78;3.47;;;;;;;11.35;45.63;102307.16;4968213;28;20042;-88
2022/10/19 06:19:12;;;;;;;7.72;3.88;;;;;;;11.35;45.47;102309.91;4954684;28;20039;-85
2022/10/19 06:21:44;;;;;;;6.38;3.65;;;;;;;11.35;45.79;102310.78;4957664;28;20047;-87
2022/10/19 06:24:13;;;;;;;5.60;3.47;;;;;;;11.30;45.84;102304.75;4955858;28;20126;-86
2022/10/19 06:26:45;;;;;;;8.02;3.90;;;;;;;11.33;45.97;102310.00;4956967;28;20039;-88
2022/10/19 06:29:28;;;;;;;6.93;3.72;;;;;;;11.38;46.11;102315.19;4975924;28;20039;-86
2022/10/19 06:31:58;;;;;;;7.53;4.10;;;;;;;11.36;46.18;102318.03;4960776;28;20046;-87
2022/10/19 06:34:26;;;;;;;6.03;3.95;;;;;;;11.42;46.80;102324.94;4977227;28;20516;-87
2022/10/19 06:36:56;;;;;;;6.30;3.25;;;;;;;11.49;47.00;102325.41;4948999;28;20034;-87
2022/10/19 06:39:24;;;;;;;5.60;3.72;;;;;;;11.59;46.73;102326.53;4972803;28;20540;-86
2022/10/19 06:41:51;;;;;;;6.70;3.63;;;;;;;11.66;47.30;102315.06;4967219;28;20129;-85
2022/10/19 06:44:41;;;;;;;6.55;3.72;;;;;;;11.81;46.40;102325.94;4984207;28;20047;-85
2022/10/19 06:47:18;;;;;;;5.88;3.42;;;;;;;11.91;47.37;102324.34;4968506;28;20069;-87
2022/10/19 06:49:49;;;;;;;7.40;3.80;;;;;;;12.04;47.42;102326.13;4990833;28;20050;-86
2022/10/19 06:52:18;;;;;;;5.45;3.70;;;;;;;12.18;46.88;102316.03;4952541;28;20038;-89
2022/10/19 06:54:47;;;;;;;6.28;3.70;;;;;;;12.29;47.17;102313.41;4973827;28;20089;-86
2022/10/19 06:57:15;;;;;;;6.88;3.92;;;;;;;12.41;47.04;102307.00;4959499;28;20098;-88
2022/10/19 06:59:43;;;;;;;8.55;4.53;;;;;;;12.57;47.25;102307.63;4952719;28;20773;-86
2022/10/19 07:02:17;;;;;;;5.43;3.97;;;;;;;12.70;46.57;102308.56;4954652;28;20402;-87
2022/10/19 07:04:46;;;;;;;7.10;4.20;;;;;;;12.83;47.12;102309.38;4959222;28;20052;-89
2022/10/19 07:07:14;;;;;;;5.45;3.53;;;;;;;12.97;46.78;102310.22;4961810;28;20046;-87
2022/10/19 07:09:43;;;;;;;6.80;3.72;;;;;;;13.07;45.78;102305.78;4990281;28;20050;-89
2022/10/19 07:12:22;;;;;;;7.82;3.90;;;;;;;13.14;45.63;102305.19;4965519;28;20054;-89
2022/10/19 07:14:50;;;;;;;6.88;3.83;;;;;;;13.23;45.88;102312.75;4977740;28;20063;-86
2022/10/19 07:17:18;;;;;;;7.65;3.85;;;;;;;13.31;45.91;102314.91;4962785;28;20039;-87
2022/10/19 07:19:45;;;;;;;6.07;3.85;;;;;;;13.38;45.78;102318.06;4961854;28;20545;-86
2022/10/19 07:22:13;;;;;;;5.95;4.03;;;;;;;13.44;45.60;102324.00;4961710;28;20059;-86
2022/10/19 07:24:51;;;;;;;6.65;3.80;;;;;;;13.48;45.24;102321.88;4962035;28;20489;-86
2022/10/19 07:27:19;;;;;;;5.57;3.45;;;;;;;13.54;45.00;102330.53;4916978;28;20047;-86
2022/10/19 07:29:48;;;;;;;6.50;4.43;;;;;;;13.60;45.02;102345.75;4998984;28;20047;-84
2022/10/19 07:32:18;;;;;;;7.90;3.75;;;;;;;13.62;45.24;102328.09;4965497;28;20046;-88
2022/10/19 07:35:38;;;;;;;8.82;4.18;;;;;;;13.67;44.79;102337.88;4940962;28;20232;-87
2022/10/19 07:38:14;;;;;;;5.70;3.40;;;;;;;13.69;45.29;102338.66;4964196;28;20200;-88
2022/10/19 07:40:47;;;;;;;6.07;3.70;;;;;;;13.73;44.21;102343.78;4982344;28;20046;-87
2022/10/19 07:43:18;;;;;;;8.35;3.85;;;;;;;13.74;44.66;102351.03;4958489;28;20071;-85
2022/10/19 07:45:46;;;;;;;6.38;3.83;;;;;;;13.78;44.97;102349.78;4961001;28;20035;-86
2022/10/19 07:48:16;;;;;;;7.55;3.75;;;;;;;13.79;44.27;102335.03;4961635;28;20046;-87
2022/10/19 07:50:47;;;;;;;5.70;3.65;;;;;;;13.79;44.58;102328.66;4953265;28;20053;-86
2022/10/19 07:53:33;;;;;;;6.72;3.78;;;;;;;13.82;44.29;102331.19;4986941;28;20051;-87
2022/10/19 07:56:13;;;;;;;6.93;3.50;;;;;;;13.75;44.39;102328.03;4946715;28;20406;-88
2022/10/19 07:59:04;;;;;;;7.53;4.22;;;;;;;13.74;43.96;102331.78;4959118;28;20061;-87
2022/10/19 08:01:43;;;;;;;8.15;4.43;;;;;;;13.69;44.36;102333.16;4925499;28;20054;-88
2022/10/19 08:04:12;;;;;;;5.80;3.55;;;;;;;13.68;44.26;102336.91;4956026;28;20049;-88
2022/10/19 08:07:04;;;;;;;6.93;3.78;;;;;;;13.63;44.61;102335.34;4976312;28;20053;-87
2022/10/19 08:09:41;;;;;;;6.18;3.75;;;;;;;13.61;44.54;102336.50;4968312;28;20133;-89
2022/10/19 08:12:29;;;;;;;6.30;3.53;;;;;;;13.56;44.54;102325.81;4969758;28;20062;-87
2022/10/19 08:14:57;;;;;;;6.03;4.45;;;;;;;13.54;44.42;102335.16;4962983;28;20047;-86
2022/10/19 08:17:25;;;;;;;7.53;4.32;;;;;;;13.50;44.87;102322.66;4956344;28;20432;-85
2022/10/19 08:19:53;;;;;;;6.43;4.00;;;;;;;13.49;44.97;102329.13;4961819;28;20573;-85
2022/10/19 08:22:21;;;;;;;8.25;4.03;;;;;;;13.47;44.51;102320.13;4960379;28;20065;-86
2022/10/19 08:24:49;;;;;;;7.07;4.28;;;;;;;13.47;45.17;102318.25;4959011;28;20054;-86
2022/10/19 08:27:17;;;;;;;7.57;4.55;;;;;;;13.45;45.09;102313.84;4976380;28;20069;-85
2022/10/19 08:29:47;;;;;;;8.02;4.25;;;;;;;13.47;44.81;102310.00;4959448;28;20497;-87
2022/10/19 08:32:15;;;;;;;6.00;3.80;;;;;;;13.50;45.36;102317.16;4950433;28;20057;-86
2022/10/19 08:34:43;;;;;;;10.02;5.35;;;;;;;13.51;45.29;102314.28;4959613;28;20473;-87
2022/10/19 08:37:11;;;;;;;9.45;4.10;;;;;;;13.53;44.81;102320.53;4932271;28;20050;-88
2022/10/19 08:40:02;;;;;;;6.38;3.78;;;;;;;13.55;45.17;102317.66;4991775;28;20039;-87
2022/10/19 08:42:53;;;;;;;5.85;3.80;;;;;;;13.62;45.41;102307.97;4963740;28;20070;-88
2022/10/19 08:45:57;;;;;;;6.78;4.20;;;;;;;13.61;44.88;102306.25;4962593;28;20123;-86
2022/10/19 08:48:50;;;;;;;5.53;3.63;;;;;;;13.70;45.37;102291.72;4961430;28;20066;-88
2022/10/19 08:51:46;;;;;;;;;;;;;;;13.46;45.61;102297.25;4913278;28;20101;-88
2022/10/19 08:54:16;;;;;;;5.60;3.38;;;;;;;13.78;45.74;102282.88;4968507;28;19969;-86
2022/10/19 08:56:48;;;;;;;6.13;3.38;;;;;;;13.85;45.09;102287.81;4981166;28;20050;-85
2022/10/19 08:59:39;;;;;;;4.90;3.00;;;;;;;13.90;45.21;102284.66;4958642;28;20051;-86
2022/10/19 09:02:17;;;;;;;6.00;3.03;;;;;;;13.98;44.48;102285.81;4932247;28;20051;-86
2022/10/19 09:04:49;;;;;;;6.38;2.90;;;;;;;14.04;45.03;102284.44;4956290;28;20047;-84
2022/10/19 09:07:27;;;;;;;6.05;2.67;;;;;;;14.10;45.43;102275.72;4986286;28;20046;-85
2022/10/19 09:09:59;;;;;;;4.68;2.65;;;;;;;14.16;44.92;102271.59;4949012;28;20121;-86
2022/10/19 09:12:39;;;;;;;4.05;2.38;;;;;;;14.22;44.10;102268.31;4971792;28;20039;-84
2022/10/19 09:15:18;;;;;;;5.28;2.67;;;;;;;14.24;43.77;102256.19;4972848;28;20047;-87
2022/10/19 09:17:48;;;;;;;4.10;2.47;;;;;;;14.27;44.37;102250.41;4959666;28;20051;-86
2022/10/19 09:20:22;;;;;;;4.63;2.42;;;;;;;14.32;43.78;102250.06;4960488;28;20050;-86
2022/10/19 09:23:00;;;;;;;4.45;2.75;;;;;;;14.35;43.31;102244.31;4976364;28;20057;-87
2022/10/19 09:25:31;;;;;;;5.78;2.47;;;;;;;14.37;43.94;102245.91;4907962;28;20097;-85
2022/10/19 09:28:10;;;;;;;4.40;2.20;;;;;;;14.44;43.45;102251.78;4931205;28;20221;-87
2022/10/19 09:30:42;;;;;;;4.35;2.15;;;;;;;14.49;43.55;102251.47;4971058;28;20058;-84
2022/10/19 09:33:19;;;;;;;6.05;2.35;;;;;;;14.53;42.95;102252.94;4987386;28;20050;-85
2022/10/19 09:36:02;;;;;;;4.20;2.20;;;;;;;14.59;42.46;102256.09;4952796;28;20062;-88
2022/10/19 09:38:31;;;;;;;4.68;2.30;;;;;;;14.63;43.69;102256.72;4987493;28;20138;-87
2022/10/19 09:41:13;;;;;;;5.93;2.10;;;;;;;14.72;42.48;102250.44;4958175;28;20065;-84
2022/10/19 09:47:33;;;;;;;5.70;1.98;;;;;;;14.81;43.15;102246.91;4957780;28;20127;-85
2022/10/19 09:50:19;;;;;;;4.63;1.98;;;;;;;14.89;42.89;102249.03;4957049;28;20046;-83
2022/10/19 10:05:56;;;;;;;3.55;1.70;;;;;;;15.33;42.61;102237.84;4958419;28;19946;-83
2022/10/19 10:08:27;;;;;;;4.60;2.10;;;;;;;15.51;42.69;102236.28;4960243;28;20043;-87
2022/10/19 10:11:06;;;;;;;4.55;2.08;;;;;;;15.63;41.07;102236.22;4973784;28;20053;-85
2022/10/19 10:13:40;;;;;;;3.45;2.10;;;;;;;15.74;41.20;102228.75;4959565;28;20402;-86
2022/10/19 10:16:18;;;;;;;4.82;1.65;;;;;;;15.82;41.59;102234.47;4956972;28;20054;-86
2022/10/19 10:18:54;;;;;;;4.13;2.00;;;;;;;15.91;41.21;102220.88;4960358;28;20277;-86
2022/10/19 10:21:25;;;;;;;5.13;2.10;;;;;;;16.00;40.81;102240.22;4961343;28;20051;-84
2022/10/19 10:24:05;;;;;;;3.78;1.90;;;;;;;16.10;40.28;102235.66;4975248;28;20046;-83
2022/10/19 10:26:39;;;;;;;3.90;2.15;;;;;;;16.14;39.39;102234.38;5000312;28;20043;-86
2022/10/19 10:29:18;;;;;;;3.65;1.90;;;;;;;16.25;39.94;102238.94;4985038;28;20046;-85
2022/10/19 10:31:49;;;;;;;3.40;1.55;;;;;;;16.27;41.21;102229.50;4978719;28;20062;-85
2022/10/19 10:34:22;;;;;;;3.65;1.90;;;;;;;16.36;40.45;102225.03;4970114;28;20053;-86
2022/10/19 10:37:14;;;;;;;3.85;2.10;;;;;;;16.43;40.31;102217.94;4981562;28;20133;-85
2022/10/19 10:39:43;;;;;;;3.08;1.40;;;;;;;16.49;40.33;102214.66;4967613;28;20077;-85
2022/10/19 10:42:17;;;;;;;4.35;2.00;;;;;;;16.55;38.07;102207.66;4981882;28;20043;-85
2022/10/19 10:44:49;;;;;;;3.75;1.88;;;;;;;16.60;39.37;102211.75;4954353;28;20498;-85
2022/10/19 10:47:19;;;;;;;3.67;1.55;;;;;;;16.64;39.48;102204.06;4952067;28;20057;-85
2022/10/19 10:49:54;;;;;;;4.43;1.73;;;;;;;16.72;38.25;102195.94;4969298;28;20043;-85
2022/10/19 10:52:26;;;;;;;2.45;1.40;;;;;;;16.74;39.41;102193.91;4955062;28;20141;-85
2022/10/19 10:55:02;;;;;;;3.90;1.40;;;;;;;16.81;38.97;102196.97;4953286;28;20046;-87
2022/10/19 11:05:02;;;;;;;2.63;1.25;;;;;;;17.06;38.89;102182.63;4862092;29;20055;-86
2022/10/19 11:07:35;;;;;;;2.70;1.30;;;;;;;17.13;37.77;102175.50;4876655;29;20053;-85
2022/10/19 11:10:13;;;;;;;3.20;1.60;;;;;;;17.21;38.09;102177.53;4884182;29;20041;-85
2022/10/19 11:12:49;;;;;;;3.03;1.35;;;;;;;17.24;37.54;102179.97;4863127;29;20505;-84
2022/10/19 11:15:22;;;;;;;3.42;1.50;;;;;;;17.24;37.11;102166.16;4876324;29;20097;-87
2022/10/19 11:18:06;;;;;;;3.72;1.30;;;;;;;17.25;36.46;102157.69;4865483;29;20077;-84
2022/10/19 11:20:40;;;;;;;3.30;1.30;;;;;;;17.23;37.39;102157.00;4879564;29;20049;-84
2022/10/19 11:23:19;;;;;;;3.75;1.38;;;;;;;17.28;36.66;102139.94;4864688;29;20059;-85
2022/10/19 11:25:59;;;;;;;3.72;1.48;;;;;;;17.27;36.34;102147.38;4887624;29;20132;-86
2022/10/19 11:28:42;;;;;;;3.22;1.20;;;;;;;17.28;36.16;102139.94;4891914;29;20045;-86
2022/10/19 11:31:17;;;;;;;2.38;1.35;;;;;;;17.30;36.46;102147.09;4884151;29;20076;-84
2022/10/19 11:40:44;;;;;;;2.10;1.30;;;;;;;17.37;36.62;102123.34;4945598;28;20042;-85
2022/10/19 11:43:42;;;;;;;2.95;1.10;;;;;;;17.44;36.32;102123.59;4994039;28;20042;-86
2022/10/19 11:46:19;;;;;;;2.95;1.25;;;;;;;17.48;36.33;102122.31;4961566;28;20043;-84
2022/10/19 11:49:12;;;;;;;3.60;1.30;;;;;;;17.50;35.32;102127.66;4956540;28;20066;-84
2022/10/19 11:51:48;;;;;;;;;;;;;;;17.24;37.11;102111.69;4957897;28;20532;-84
2022/10/19 11:54:32;;;;;;;2.67;1.27;;;;;;;17.54;36.00;102118.94;4972190;28;20340;-85
2022/10/19 11:57:09;;;;;;;3.53;1.20;;;;;;;17.58;35.46;102112.06;4987162;28;20122;-85
2022/10/19 11:59:52;;;;;;;2.53;1.13;;;;;;;17.62;35.70;102113.50;4970759;28;20038;-86
2022/10/19 12:02:56;;;;;;;3.47;1.27;;;;;;;17.62;36.02;102099.69;4957179;28;20105;-85
2022/10/19 12:05:35;;;;;;;1.90;1.00;;;;;;;17.66;36.32;102100.22;4939726;28;20618;-86
2022/10/19 12:08:21;;;;;;;2.70;1.10;;;;;;;17.73;35.41;102090.31;4959414;28;20117;-85
2022/10/19 12:11:02;;;;;;;2.80;1.10;;;;;;;17.79;35.39;102091.63;4960018;28;20386;-84
2022/10/19 12:13:39;;;;;;;3.40;1.25;;;;;;;17.82;35.24;102072.78;4966856;28;20051;-83
2022/10/19 12:16:11;;;;;;;2.67;1.27;;;;;;;17.88;36.10;102074.09;4975062;28;20051;-85
2022/10/19 12:18:45;;;;;;;2.47;1.00;;;;;;;17.92;34.96;102075.53;4995330;28;20577;-86
2022/10/19 12:21:20;;;;;;;2.42;1.20;;;;;;;17.96;35.13;102075.09;4977177;28;20050;-85
2022/10/19 12:23:48;;;;;;;2.97;1.02;;;;;;;17.98;35.53;102069.38;4980112;28;20050;-86
2022/10/19 12:26:21;;;;;;;1.95;0.90;;;;;;;18.01;34.96;102060.75;4961401;28;20039;-87
2022/10/19 12:28:55;;;;;;;2.55;1.05;;;;;;;18.06;34.53;102055.66;4960662;28;20130;-84